Time;durP1;ratioP1;P1;durP2;ratioP2;P2;SDS_P1;SDS_P2;PMS_P1;PMS_P2;Temp;Humidity;BMP_temperature;BMP_pressure;BME280_temperature;BME280_humidity;BME280_pressure;Samples;Min_cycle;Max_cycle;Signal;HPM_P1;HPM_P2
2023/05/26 00:00:52;;;;;;;13.13;3.88;;;13.50;99.90;;;;;;5106325;28;20189;-78
2023/05/26 00:03:19;;;;;;;10.55;4.35;;;13.50;99.90;;;;;;5104211;28;20224;-78
2023/05/26 00:05:48;;;;;;;16.52;4.75;;;13.40;99.90;;;;;;5114150;28;20199;-78
2023/05/26 00:08:15;;;;;;;14.52;4.60;;;13.40;99.90;;;;;;5110673;28;20216;-78
2023/05/26 00:10:43;;;;;;;15.93;4.75;;;13.40;99.90;;;;;;5104999;28;20215;-78
2023/05/26 00:13:10;;;;;;;14.30;4.40;;;13.50;99.90;;;;;;5113280;28;20199;-78
2023/05/26 00:15:38;;;;;;;13.10;4.30;;;13.30;99.90;;;;;;5110098;28;20196;-78
2023/05/26 00:18:06;;;;;;;15.02;4.47;;;13.30;99.90;;;;;;5114747;28;20196;-78
2023/05/26 00:20:34;;;;;;;16.10;4.07;;;13.20;99.90;;;;;;5106047;28;20220;-78
2023/05/26 00:23:03;;;;;;;15.65;3.75;;;13.10;99.90;;;;;;5115321;28;20200;-78
2023/05/26 00:25:30;;;;;;;14.55;4.80;;;13.20;99.90;;;;;;5109287;28;20201;-78
2023/05/26 00:27:58;;;;;;;14.30;4.60;;;13.20;99.90;;;;;;5111168;28;20216;-78
2023/05/26 00:30:25;;;;;;;14.57;4.68;;;13.30;99.90;;;;;;5107063;28;20705;-78
2023/05/26 00:32:53;;;;;;;14.65;4.90;;;13.30;99.90;;;;;;5115122;28;20563;-78
2023/05/26 00:35:20;;;;;;;9.80;4.75;;;13.30;99.90;;;;;;5111523;28;20208;-78
2023/05/26 00:37:48;;;;;;;10.80;3.63;;;13.20;99.90;;;;;;5100651;28;20200;-78
2023/05/26 00:40:17;;;;;;;18.05;4.57;;;13.20;99.90;;;;;;5113257;28;20720;-78
2023/05/26 00:42:45;;;;;;;13.48;4.80;;;13.00;99.90;;;;;;5111683;28;20188;-78
2023/05/26 00:45:13;;;;;;;12.65;4.38;;;12.90;99.90;;;;;;5109804;28;20207;-78
2023/05/26 00:47:40;;;;;;;20.80;4.95;;;12.90;99.90;;;;;;5109163;28;20192;-78
2023/05/26 00:50:12;;;;;;;10.40;3.58;;;12.70;99.90;;;;;;5108054;28;20217;-78
2023/05/26 00:52:40;;;;;;;15.43;5.00;;;12.60;99.90;;;;;;5105278;28;20208;-78
2023/05/26 00:55:09;;;;;;;15.65;4.57;;;12.60;99.90;;;;;;5108379;28;20582;-78
2023/05/26 00:57:39;;;;;;;16.85;4.50;;;12.70;99.90;;;;;;5110640;28;20197;-78
2023/05/26 01:00:09;;;;;;;15.20;4.60;;;12.70;99.90;;;;;;5105264;28;20694;-78
2023/05/26 01:02:39;;;;;;;14.60;5.32;;;12.80;99.90;;;;;;5109916;28;20203;-78
2023/05/26 01:05:09;;;;;;;13.75;4.32;;;12.70;99.90;;;;;;5101785;28;20196;-78
2023/05/26 01:07:37;;;;;;;10.45;3.58;;;12.80;99.90;;;;;;5105888;28;20200;-78
2023/05/26 01:10:05;;;;;;;10.18;3.92;;;12.60;99.90;;;;;;5099621;28;20244;-78
2023/05/26 01:12:39;;;;;;;11.77;4.13;;;12.50;99.90;;;;;;5106375;28;20189;-78
2023/05/26 01:15:26;;;;;;;16.77;4.95;;;12.30;99.90;;;;;;5101509;28;20661;-78
2023/05/26 01:18:02;;;;;;;14.82;4.55;;;12.30;99.90;;;;;;5108199;28;20192;-78
2023/05/26 01:20:37;;;;;;;16.90;4.90;;;12.50;99.90;;;;;;5107822;28;20218;-78
2023/05/26 01:23:32;;;;;;;13.23;4.05;;;12.30;99.90;;;;;;5107348;28;20188;-78
2023/05/26 01:26:19;;;;;;;16.27;3.97;;;12.30;99.90;;;;;;5097047;28;20665;-78
2023/05/26 01:28:52;;;;;;;17.02;4.40;;;12.50;99.90;;;;;;5112483;28;20216;-78
2023/05/26 01:31:27;;;;;;;13.68;4.50;;;12.40;99.90;;;;;;5106397;28;20192;-78
2023/05/26 01:33:54;;;;;;;18.35;4.70;;;12.30;99.90;;;;;;5100158;28;20646;-78
2023/05/26 01:36:25;;;;;;;15.77;3.95;;;12.30;99.90;;;;;;5108635;28;20204;-78
2023/05/26 01:38:53;;;;;;;14.93;4.68;;;12.30;99.90;;;;;;5102964;28;20220;-78
2023/05/26 01:41:25;;;;;;;18.73;4.75;;;12.20;99.90;;;;;;5105463;28;20199;-78
2023/05/26 01:44:00;;;;;;;12.10;3.80;;;12.20;99.90;;;;;;5119211;27;20580;-78
2023/05/26 01:46:33;;;;;;;13.70;4.07;;;12.10;99.90;;;;;;5102305;28;20187;-78
2023/05/26 01:49:06;;;;;;;14.65;4.85;;;12.00;99.90;;;;;;5098823;28;20235;-78
2023/05/26 01:51:36;;;;;;;20.85;4.50;;;11.90;99.90;;;;;;5098138;28;20205;-78
2023/05/26 01:54:09;;;;;;;11.65;3.88;;;12.00;99.90;;;;;;5104344;28;20203;-78
2023/05/26 01:56:37;;;;;;;13.35;3.88;;;12.00;99.90;;;;;;5107453;28;20204;-78
2023/05/26 01:59:07;;;;;;;14.80;4.80;;;11.50;99.90;;;;;;5106025;28;20209;-78
2023/05/26 02:01:35;;;;;;;16.10;4.85;;;11.50;99.90;;;;;;5107857;28;20673;-78
2023/05/26 02:04:02;;;;;;;13.23;4.80;;;11.60;99.90;;;;;;5102848;28;20196;-78
2023/05/26 02:06:30;;;;;;;15.27;4.88;;;11.20;99.90;;;;;;5104098;28;20211;-78
2023/05/26 02:08:58;;;;;;;15.88;4.78;;;11.10;99.90;;;;;;5103419;28;20216;-78
2023/05/26 02:11:25;;;;;;;14.40;4.05;;;11.10;99.90;;;;;;5108444;28;20207;-77
2023/05/26 02:13:54;;;;;;;15.05;4.22;;;10.90;99.90;;;;;;5110584;28;20196;-78
2023/05/26 02:16:23;;;;;;;18.17;4.93;;;11.00;99.90;;;;;;5102161;28;20697;-78
2023/05/26 02:18:52;;;;;;;14.85;4.28;;;11.10;99.90;;;;;;5115398;28;20208;-78
2023/05/26 02:21:20;;;;;;;17.05;4.80;;;11.30;99.90;;;;;;5098934;28;20216;-78
2023/05/26 02:23:47;;;;;;;18.27;5.03;;;11.30;99.90;;;;;;5100158;28;20196;-78
2023/05/26 02:26:14;;;;;;;14.68;4.80;;;11.40;99.90;;;;;;5097535;28;20279;-78
2023/05/26 02:28:42;;;;;;;15.52;5.03;;;11.60;99.90;;;;;;5108381;28;20225;-78
2023/05/26 02:31:09;;;;;;;11.70;3.92;;;11.60;99.90;;;;;;5103450;28;20208;-78
2023/05/26 02:33:41;;;;;;;16.65;5.03;;;11.70;99.90;;;;;;5105201;28;20203;-78
2023/05/26 02:36:11;;;;;;;13.85;4.38;;;11.60;99.90;;;;;;5102613;28;20188;-78
2023/05/26 02:38:38;;;;;;;17.75;4.60;;;11.60;99.90;;;;;;5102930;28;20223;-78
2023/05/26 02:41:07;;;;;;;18.45;4.53;;;11.60;99.90;;;;;;5107120;28;20188;-78
2023/05/26 02:43:34;;;;;;;19.95;3.85;;;11.60;99.90;;;;;;5104211;28;20205;-78
2023/05/26 02:46:03;;;;;;;15.73;4.45;;;11.80;99.90;;;;;;5117050;27;20215;-78
2023/05/26 02:48:30;;;;;;;12.27;4.50;;;11.90;99.90;;;;;;5111246;28;20197;-78
2023/05/26 02:51:00;;;;;;;20.10;5.07;;;11.80;99.90;;;;;;5109573;28;20212;-78
2023/05/26 02:53:28;;;;;;;14.93;5.13;;;11.80;99.90;;;;;;5110249;28;20215;-78
2023/05/26 02:55:56;;;;;;;12.85;3.75;;;11.60;99.90;;;;;;5113312;28;20192;-78
2023/05/26 02:58:23;;;;;;;15.35;5.18;;;11.80;99.90;;;;;;5107739;28;20196;-78
2023/05/26 03:00:52;;;;;;;19.40;5.18;;;11.50;99.90;;;;;;5103778;28;20188;-77
2023/05/26 03:03:47;;;;;;;17.95;4.60;;;11.50;99.90;;;;;;5103584;28;20200;-78
2023/05/26 03:06:16;;;;;;;14.13;4.38;;;11.70;99.90;;;;;;5108644;28;20783;-78
2023/05/26 03:08:44;;;;;;;14.65;4.45;;;11.60;99.90;;;;;;5113018;28;20242;-79
2023/05/26 03:11:12;;;;;;;13.73;4.55;;;11.30;99.90;;;;;;5103030;28;20209;-78
2023/05/26 03:13:43;;;;;;;17.37;5.33;;;11.40;99.90;;;;;;5102628;28;20659;-78
2023/05/26 03:16:11;;;;;;;13.00;4.95;;;11.40;99.90;;;;;;5101977;28;20211;-78
2023/05/26 03:18:39;;;;;;;13.80;5.05;;;11.50;99.90;;;;;;5107328;28;20223;-78
2023/05/26 03:21:09;;;;;;;12.93;4.75;;;11.40;99.90;;;;;;5108098;28;20196;-78
2023/05/26 03:23:38;;;;;;;13.52;4.70;;;11.50;99.90;;;;;;5103064;28;20207;-78
2023/05/26 03:26:05;;;;;;;17.70;5.75;;;11.50;99.90;;;;;;5107463;28;20197;-78
2023/05/26 03:28:34;;;;;;;17.30;5.03;;;11.50;99.90;;;;;;5100410;28;20220;-78
2023/05/26 03:31:02;;;;;;;16.40;5.10;;;11.60;99.90;;;;;;5110337;28;20208;-78
2023/05/26 03:33:31;;;;;;;17.17;5.00;;;11.60;99.90;;;;;;5111396;28;20204;-78
2023/05/26 03:36:00;;;;;;;16.63;5.13;;;11.70;99.90;;;;;;5106052;28;20201;-78
2023/05/26 03:38:28;;;;;;;16.65;4.65;;;11.70;99.90;;;;;;5099478;28;20193;-78
2023/05/26 03:40:59;;;;;;;15.35;4.55;;;11.70;99.90;;;;;;5108030;28;20567;-78
2023/05/26 03:43:27;;;;;;;14.73;4.65;;;11.60;99.90;;;;;;5102977;28;20547;-77
2023/05/26 03:45:55;;;;;;;16.75;4.97;;;11.60;99.90;;;;;;5105060;28;20211;-78
2023/05/26 03:48:23;;;;;;;16.13;4.55;;;11.60;99.90;;;;;;5108801;28;20200;-78
2023/05/26 03:50:50;;;;;;;15.63;4.80;;;11.70;99.90;;;;;;5101680;28;20200;-78
2023/05/26 03:53:18;;;;;;;22.95;6.25;;;11.70;99.90;;;;;;5103363;28;20201;-78
2023/05/26 03:55:46;;;;;;;16.42;4.63;;;11.70;99.90;;;;;;5106518;28;20192;-78
2023/05/26 03:58:15;;;;;;;18.38;5.47;;;11.70;99.90;;;;;;5111457;28;20202;-78
2023/05/26 04:00:42;;;;;;;19.75;5.60;;;11.60;99.90;;;;;;5106779;28;20193;-77
2023/05/26 04:03:10;;;;;;;15.15;5.65;;;11.50;99.90;;;;;;5113098;28;20683;-82
2023/05/26 04:05:38;;;;;;;16.85;5.35;;;11.50;99.90;;;;;;5114816;28;20197;-82
2023/05/26 04:08:06;;;;;;;15.20;5.65;;;11.50;99.90;;;;;;5118050;28;20211;-84
2023/05/26 04:10:33;;;;;;;14.67;4.67;;;11.30;99.90;;;;;;5106993;28;20213;-83
2023/05/26 04:13:00;;;;;;;16.25;5.18;;;11.40;99.90;;;;;;5114690;28;20203;-82
2023/05/26 04:15:31;;;;;;;17.95;5.18;;;11.30;99.90;;;;;;5114215;28;20200;-82
2023/05/26 04:17:58;;;;;;;16.02;4.82;;;11.30;99.90;;;;;;5112273;28;20197;-82
2023/05/26 04:20:25;;;;;;;19.85;5.32;;;11.30;99.90;;;;;;5115047;28;20223;-83
2023/05/26 04:22:53;;;;;;;17.58;5.30;;;11.30;99.90;;;;;;5117472;28;20196;-82
2023/05/26 04:25:21;;;;;;;16.70;5.03;;;11.30;99.90;;;;;;5117636;28;20208;-82
2023/05/26 04:28:02;;;;;;;21.07;4.97;;;11.20;99.90;;;;;;5115015;28;20196;-83
2023/05/26 04:30:39;;;;;;;17.33;5.23;;;11.30;99.90;;;;;;5116750;28;20208;-82
2023/05/26 04:33:26;;;;;;;20.13;5.30;;;11.10;99.90;;;;;;5111742;28;20196;-82
2023/05/26 04:36:03;;;;;;;17.43;4.63;;;10.90;99.90;;;;;;5111310;28;20204;-82
2023/05/26 04:38:31;;;;;;;15.73;5.60;;;11.20;99.90;;;;;;5105434;28;20757;-83
2023/05/26 04:40:58;;;;;;;17.60;5.67;;;11.40;99.90;;;;;;5113293;28;20196;-82
2023/05/26 04:43:25;;;;;;;16.53;4.73;;;11.30;99.90;;;;;;5116135;27;20204;-82
2023/05/26 04:45:56;;;;;;;16.87;6.33;;;11.20;99.90;;;;;;5114932;28;20207;-82
2023/05/26 04:48:24;;;;;;;17.43;5.63;;;11.30;99.90;;;;;;5117057;28;20203;-82
2023/05/26 04:50:53;;;;;;;13.23;4.82;;;11.20;99.90;;;;;;5111555;28;20670;-82
2023/05/26 04:53:20;;;;;;;27.23;5.53;;;11.20;99.90;;;;;;5116638;28;20208;-82
2023/05/26 04:55:48;;;;;;;19.15;4.93;;;11.20;99.90;;;;;;5115561;28;20197;-82
2023/05/26 04:58:17;;;;;;;17.52;6.35;;;11.30;99.90;;;;;;5110214;28;20208;-82
2023/05/26 05:00:44;;;;;;;13.77;5.28;;;11.30;99.90;;;;;;5113230;28;20562;-82
2023/05/26 05:03:42;;;;;;;19.70;5.05;;;11.30;99.90;;;;;;5118324;28;20192;-83
2023/05/26 05:06:14;;;;;;;20.83;6.65;;;11.40;99.90;;;;;;5114993;28;20197;-82
2023/05/26 05:08:42;;;;;;;15.43;5.25;;;11.30;99.90;;;;;;5116138;28;20219;-82
2023/05/26 05:11:11;;;;;;;24.27;6.32;;;11.40;99.90;;;;;;5109821;28;20217;-82
2023/05/26 05:13:39;;;;;;;18.85;6.20;;;11.40;99.90;;;;;;5113961;28;20200;-84
2023/05/26 05:16:07;;;;;;;20.65;5.65;;;11.20;99.90;;;;;;5109433;28;20193;-82
2023/05/26 05:18:34;;;;;;;22.70;6.38;;;11.50;99.90;;;;;;5100514;28;20229;-82
2023/05/26 05:21:13;;;;;;;15.90;5.53;;;10.80;99.90;;;;;;5103536;28;20185;-83
2023/05/26 05:23:42;;;;;;;22.80;5.85;;;10.90;99.90;;;;;;5109609;28;20192;-82
2023/05/26 05:27:01;;;;;;;;;;;;;;;;;;;;;
2023/05/26 05:29:55;;;;;;;18.60;4.95;;;11.10;99.90;;;;;;5055883;28;20717;-82
2023/05/26 05:32:24;;;;;;;20.83;5.97;;;11.20;99.90;;;;;;5105563;28;20666;-82
2023/05/26 05:34:51;;;;;;;19.33;5.40;;;11.10;99.90;;;;;;5110631;28;20200;-82
2023/05/26 05:37:20;;;;;;;19.08;6.20;;;11.30;99.90;;;;;;5112217;28;20197;-82
2023/05/26 05:39:48;;;;;;;15.13;5.17;;;11.50;99.90;;;;;;5098738;28;20224;-83
2023/05/26 05:42:24;;;;;;;21.67;6.40;;;11.60;99.90;;;;;;5104859;28;20200;-83
2023/05/26 05:44:53;;;;;;;14.80;4.78;;;11.70;99.90;;;;;;5111286;28;20677;-82
2023/05/26 05:47:38;;;;;;;12.93;5.85;;;11.70;99.90;;;;;;5115243;28;20196;-82
2023/05/26 05:50:19;;;;;;;16.73;5.07;;;11.70;99.90;;;;;;5112058;28;20212;-82
2023/05/26 05:52:49;;;;;;;20.08;5.50;;;11.70;99.90;;;;;;5116310;28;20208;-82
2023/05/26 05:55:18;;;;;;;19.48;5.78;;;11.70;99.90;;;;;;5112801;28;20193;-82
2023/05/26 05:57:46;;;;;;;18.98;5.63;;;11.50;99.90;;;;;;5114325;28;20690;-82
2023/05/26 06:00:14;;;;;;;16.98;6.35;;;11.50;99.90;;;;;;5097958;28;20235;-82
2023/05/26 06:03:04;;;;;;;19.25;6.10;;;11.50;99.90;;;;;;5098545;28;20204;-81
2023/05/26 06:05:31;;;;;;;16.95;5.57;;;11.60;99.90;;;;;;5104649;28;20204;-81
2023/05/26 06:08:00;;;;;;;26.27;6.65;;;11.60;99.90;;;;;;5100159;28;20197;-81
2023/05/26 06:10:28;;;;;;;20.30;6.30;;;11.70;99.90;;;;;;5100626;28;20217;-81
2023/05/26 06:12:59;;;;;;;20.80;5.25;;;11.50;99.90;;;;;;5108739;28;20192;-80
2023/05/26 06:15:26;;;;;;;24.67;6.53;;;11.40;99.90;;;;;;5100328;28;20678;-81
2023/05/26 06:18:04;;;;;;;19.80;6.07;;;11.20;99.90;;;;;;5100870;28;20196;-81
2023/05/26 06:20:32;;;;;;;12.45;5.03;;;11.50;99.90;;;;;;5102359;28;20231;-81
2023/05/26 06:23:04;;;;;;;17.40;5.95;;;11.60;99.90;;;;;;5102577;28;20192;-83
2023/05/26 06:25:32;;;;;;;23.52;5.93;;;11.60;99.90;;;;;;5099554;28;20188;-83
2023/05/26 06:27:59;;;;;;;17.57;5.77;;;11.70;99.90;;;;;;5100410;28;20207;-82
2023/05/26 06:30:36;;;;;;;15.73;6.17;;;11.50;99.90;;;;;;5094873;28;20701;-82
2023/05/26 06:33:19;;;;;;;17.05;5.85;;;11.50;99.90;;;;;;5103703;28;20196;-82
2023/05/26 06:35:47;;;;;;;20.83;6.10;;;11.80;99.90;;;;;;5102543;28;20606;-82
2023/05/26 06:38:16;;;;;;;14.27;5.35;;;11.90;99.90;;;;;;5110701;28;20211;-82
2023/05/26 06:40:44;;;;;;;18.48;6.00;;;11.90;99.90;;;;;;5108101;28;20201;-82
2023/05/26 06:43:11;;;;;;;18.08;6.63;;;11.90;99.90;;;;;;5105316;28;20562;-81
2023/05/26 06:45:39;;;;;;;15.57;5.32;;;11.40;99.90;;;;;;5111325;28;20192;-82
2023/05/26 06:48:07;;;;;;;19.63;6.28;;;11.50;99.90;;;;;;5101381;27;20196;-82
2023/05/26 06:50:39;;;;;;;20.05;6.78;;;11.70;99.90;;;;;;5103894;28;20216;-82
2023/05/26 06:53:07;;;;;;;19.08;6.03;;;11.90;99.90;;;;;;5092632;28;20205;-82
2023/05/26 06:55:36;;;;;;;19.38;6.75;;;12.00;99.90;;;;;;5108914;28;20207;-82
2023/05/26 06:58:04;;;;;;;18.80;6.18;;;12.00;99.90;;;;;;5110953;28;20193;-82
2023/05/26 07:00:31;;;;;;;17.77;6.35;;;12.10;99.90;;;;;;5111431;28;20212;-82
2023/05/26 07:03:11;;;;;;;14.48;6.07;;;12.20;99.90;;;;;;5100797;28;20196;-82
2023/05/26 07:05:42;;;;;;;20.08;6.10;;;12.10;99.90;;;;;;5101291;28;20193;-82
2023/05/26 07:08:09;;;;;;;16.23;5.25;;;12.20;99.90;;;;;;5111967;28;20565;-82
2023/05/26 07:10:40;;;;;;;15.52;6.45;;;12.40;99.90;;;;;;5110738;28;20227;-82
2023/05/26 07:13:07;;;;;;;22.00;6.88;;;12.40;99.90;;;;;;5102991;28;20279;-82
2023/05/26 07:15:37;;;;;;;19.60;5.50;;;12.60;99.90;;;;;;5101415;28;20650;-82
2023/05/26 07:18:07;;;;;;;18.90;6.35;;;12.70;99.90;;;;;;5110391;28;20189;-84
2023/05/26 07:20:35;;;;;;;19.63;6.28;;;12.70;99.90;;;;;;5106294;28;20223;-83
2023/05/26 07:23:03;;;;;;;23.70;6.65;;;12.70;99.90;;;;;;5115285;28;20196;-83
2023/05/26 07:25:31;;;;;;;20.65;6.30;;;12.70;99.90;;;;;;5102056;28;20215;-83
2023/05/26 07:28:01;;;;;;;17.77;5.78;;;12.70;99.90;;;;;;5111143;28;20197;-83
2023/05/26 07:30:30;;;;;;;24.60;6.47;;;12.80;99.90;;;;;;5106786;28;20220;-83
2023/05/26 07:33:24;;;;;;;19.67;5.47;;;12.90;99.90;;;;;;5108274;28;20223;-82
2023/05/26 07:35:52;;;;;;;17.42;5.78;;;12.90;99.90;;;;;;5106651;28;20570;-83
2023/05/26 07:38:19;;;;;;;17.58;6.45;;;12.80;99.90;;;;;;5102176;28;20197;-83
2023/05/26 07:40:46;;;;;;;20.20;5.47;;;12.90;99.90;;;;;;5108393;28;20530;-83
2023/05/26 07:43:15;;;;;;;19.42;5.60;;;13.10;99.90;;;;;;5107651;28;20200;-82
2023/05/26 07:45:43;;;;;;;23.52;6.75;;;13.10;99.90;;;;;;5107314;28;20189;-82
2023/05/26 07:48:11;;;;;;;19.63;5.40;;;13.20;99.90;;;;;;5113790;28;20212;-82
2023/05/26 07:50:38;;;;;;;17.45;5.53;;;13.40;99.90;;;;;;5117029;28;20239;-83
2023/05/26 07:53:06;;;;;;;18.08;5.72;;;13.50;99.90;;;;;;5108513;28;20234;-85
2023/05/26 07:55:33;;;;;;;14.80;5.20;;;13.40;99.90;;;;;;5116270;28;20200;-82
2023/05/26 07:58:01;;;;;;;14.55;5.57;;;13.30;99.90;;;;;;5104076;28;20192;-83
2023/05/26 08:00:29;;;;;;;20.45;6.10;;;13.10;99.90;;;;;;5095575;28;20221;-83
2023/05/26 08:02:57;;;;;;;18.83;6.03;;;13.20;99.90;;;;;;5103516;28;20189;-83
2023/05/26 08:05:26;;;;;;;21.10;6.90;;;13.40;99.90;;;;;;5118577;28;20165;-83
2023/05/26 08:07:54;;;;;;;16.70;5.18;;;13.40;99.90;;;;;;5102329;28;20208;-84
2023/05/26 08:10:21;;;;;;;16.02;6.18;;;13.30;99.90;;;;;;5102974;28;20682;-83
2023/05/26 08:12:50;;;;;;;16.50;5.85;;;13.50;99.90;;;;;;5105906;28;20298;-84
2023/05/26 08:15:21;;;;;;;19.95;5.97;;;13.70;99.90;;;;;;5104641;28;20207;-81
2023/05/26 08:17:50;;;;;;;14.93;5.95;;;13.60;99.90;;;;;;5116904;28;20196;-82
2023/05/26 08:20:17;;;;;;;14.85;5.28;;;14.20;99.90;;;;;;5110873;28;20228;-81
2023/05/26 08:22:45;;;;;;;17.60;5.35;;;14.10;99.90;;;;;;5114682;28;20195;-80
2023/05/26 08:25:13;;;;;;;15.18;5.90;;;14.20;99.90;;;;;;5095790;28;20207;-82
2023/05/26 08:27:41;;;;;;;19.58;5.53;;;14.30;99.90;;;;;;5109690;28;20211;-82
2023/05/26 08:30:09;;;;;;;17.48;6.20;;;14.00;99.90;;;;;;5103427;28;20224;-82
2023/05/26 08:32:36;;;;;;;19.88;6.13;;;14.40;99.90;;;;;;5118047;28;20220;-80
2023/05/26 08:35:05;;;;;;;20.95;6.60;;;14.40;99.90;;;;;;5116245;28;20515;-81
2023/05/26 08:37:33;;;;;;;14.52;5.25;;;14.50;99.90;;;;;;5116872;28;20207;-81
2023/05/26 08:40:02;;;;;;;16.33;4.95;;;15.00;99.90;;;;;;5114804;28;20227;-81
2023/05/26 08:42:34;;;;;;;25.08;6.55;;;15.20;99.90;;;;;;5110228;28;20215;-81
2023/05/26 08:45:01;;;;;;;19.35;6.25;;;15.30;99.90;;;;;;5111154;28;20188;-80
2023/05/26 08:47:31;;;;;;;18.38;5.38;;;14.50;99.90;;;;;;5114404;28;20586;-82
2023/05/26 08:50:06;;;;;;;20.88;5.80;;;14.50;99.90;;;;;;5112457;28;20239;-82
2023/05/26 08:52:34;;;;;;;19.13;6.10;;;14.50;99.90;;;;;;5109362;28;20228;-82
2023/05/26 08:55:01;;;;;;;14.05;5.10;;;14.60;99.90;;;;;;5118091;28;20193;-82
2023/05/26 08:57:30;;;;;;;18.63;6.13;;;14.60;99.90;;;;;;5117512;28;20204;-82
2023/05/26 08:59:58;;;;;;;12.73;5.05;;;14.60;99.90;;;;;;5104568;28;20273;-82
2023/05/26 09:02:25;;;;;;;18.08;5.78;;;14.40;99.90;;;;;;5107827;28;20207;-83
2023/05/26 09:04:53;;;;;;;16.88;5.53;;;14.50;99.90;;;;;;5119101;28;20203;-81
2023/05/26 09:07:21;;;;;;;20.73;5.60;;;14.30;99.90;;;;;;5105455;28;20689;-80
2023/05/26 09:09:49;;;;;;;20.65;6.45;;;14.30;99.90;;;;;;5122564;27;20216;-82
2023/05/26 09:12:16;;;;;;;14.65;6.18;;;14.40;99.90;;;;;;5116700;28;20219;-82
2023/05/26 09:14:44;;;;;;;17.50;5.53;;;14.60;99.90;;;;;;5120951;28;20196;-83
2023/05/26 09:17:14;;;;;;;13.48;4.63;;;14.40;99.90;;;;;;5121509;28;20196;-82
2023/05/26 09:19:41;;;;;;;17.60;6.40;;;14.40;99.90;;;;;;5116306;28;20610;-82
2023/05/26 09:22:10;;;;;;;19.98;6.20;;;14.40;99.90;;;;;;5120338;28;20199;-83
2023/05/26 09:24:46;;;;;;;17.35;5.70;;;14.40;99.90;;;;;;5121270;28;20207;-82
2023/05/26 09:27:19;;;;;;;11.07;5.22;;;14.60;99.90;;;;;;5120977;28;20202;-83
2023/05/26 09:29:51;;;;;;;16.98;5.70;;;14.80;99.90;;;;;;5120838;28;20231;-82
2023/05/26 09:32:19;;;;;;;12.95;5.18;;;14.70;99.90;;;;;;5120959;28;20200;-82
2023/05/26 09:34:47;;;;;;;15.00;4.85;;;14.80;99.90;;;;;;5121569;28;20193;-83
2023/05/26 09:37:14;;;;;;;15.55;5.18;;;15.00;99.90;;;;;;5121480;28;20204;-82
2023/05/26 09:39:42;;;;;;;19.67;5.28;;;14.90;99.90;;;;;;5122020;27;20227;-82
2023/05/26 09:42:11;;;;;;;20.60;5.63;;;14.90;99.90;;;;;;5120051;28;20690;-83
2023/05/26 09:44:39;;;;;;;15.93;5.93;;;14.90;99.90;;;;;;5120167;28;20570;-82
2023/05/26 09:47:08;;;;;;;19.65;5.22;;;14.90;99.90;;;;;;5122614;28;20196;-83
2023/05/26 09:49:38;;;;;;;17.95;5.03;;;14.90;99.90;;;;;;5120100;28;20212;-82
2023/05/26 09:52:06;;;;;;;13.32;5.18;;;14.90;99.90;;;;;;5121331;27;20199;-82
2023/05/26 09:54:33;;;;;;;15.20;5.32;;;15.00;99.90;;;;;;5117566;28;20223;-83
2023/05/26 09:57:04;;;;;;;18.35;5.13;;;15.20;99.90;;;;;;5120392;28;20210;-83
2023/05/26 09:59:38;;;;;;;15.05;4.88;;;15.30;99.90;;;;;;5121688;28;20204;-83
2023/05/26 10:02:11;;;;;;;20.98;5.22;;;15.40;99.90;;;;;;5119963;28;20207;-83
2023/05/26 10:04:40;;;;;;;12.63;4.85;;;15.50;99.90;;;;;;5121065;28;20646;-83
2023/05/26 10:07:08;;;;;;;18.67;6.03;;;15.50;99.90;;;;;;5120099;28;20200;-82
2023/05/26 10:09:37;;;;;;;17.33;5.28;;;15.40;99.90;;;;;;5120415;28;20220;-82
2023/05/26 10:12:06;;;;;;;20.45;6.40;;;15.40;99.90;;;;;;5122136;28;20184;-82
2023/05/26 10:14:36;;;;;;;15.07;5.35;;;15.50;99.90;;;;;;5121548;28;20215;-82
2023/05/26 10:17:04;;;;;;;18.45;5.47;;;15.60;99.90;;;;;;5120925;28;20204;-82
2023/05/26 10:19:32;;;;;;;16.63;5.32;;;15.70;99.90;;;;;;5105566;28;20221;-80
2023/05/26 10:22:09;;;;;;;16.63;5.72;;;15.90;99.90;;;;;;5111232;28;20195;-82
2023/05/26 10:24:41;;;;;;;18.33;6.18;;;15.90;99.90;;;;;;5110782;28;20198;-83
2023/05/26 10:27:17;;;;;;;16.63;6.22;;;16.00;99.90;;;;;;5113926;28;20219;-83
2023/05/26 10:30:00;;;;;;;15.07;5.95;;;16.00;99.90;;;;;;5104299;28;20213;-84
2023/05/26 10:32:47;;;;;;;21.80;7.60;;;15.90;99.90;;;;;;5114368;28;20251;-84
2023/05/26 10:35:28;;;;;;;23.67;8.95;;;16.10;99.90;;;;;;5106280;28;20192;-84
2023/05/26 10:37:58;;;;;;;16.13;5.95;;;16.30;99.90;;;;;;5108840;28;20196;-83
2023/05/26 10:40:30;;;;;;;17.63;6.05;;;16.30;99.90;;;;;;5111716;28;20228;-83
2023/05/26 10:43:02;;;;;;;16.60;6.28;;;16.40;99.90;;;;;;5100778;28;20192;-83
2023/05/26 10:45:34;;;;;;;20.02;6.28;;;16.50;99.90;;;;;;5111835;28;20208;-84
2023/05/26 10:48:10;;;;;;;16.30;4.93;;;16.40;99.90;;;;;;5111155;28;20185;-82
2023/05/26 10:51:09;;;;;;;18.08;5.10;;;16.40;99.90;;;;;;5104482;28;20223;-82
2023/05/26 10:53:41;;;;;;;16.90;5.07;;;16.60;99.90;;;;;;5109802;28;20224;-82
2023/05/26 10:56:12;;;;;;;17.98;5.43;;;16.50;99.90;;;;;;5109605;28;20199;-83
2023/05/26 10:58:41;;;;;;;18.00;5.88;;;16.50;99.90;;;;;;5102110;28;20220;-82
2023/05/26 11:01:16;;;;;;;15.27;6.38;;;16.80;99.90;;;;;;5108619;27;20687;-82
2023/05/26 11:03:45;;;;;;;16.90;5.65;;;16.90;99.90;;;;;;5100663;28;20678;-81
2023/05/26 11:06:35;;;;;;;15.50;5.35;;;17.20;99.60;;;;;;5108433;27;20195;-81
2023/05/26 11:09:08;;;;;;;16.42;5.93;;;17.40;98.90;;;;;;5120598;27;20565;-82
2023/05/26 11:11:38;;;;;;;14.75;5.68;;;17.40;98.70;;;;;;5102981;28;20205;-81
2023/05/26 11:14:09;;;;;;;22.23;6.03;;;17.40;99.90;;;;;;5112380;28;20220;-82
2023/05/26 11:16:45;;;;;;;17.67;5.95;;;17.30;99.90;;;;;;5116378;28;20203;-82
2023/05/26 11:19:14;;;;;;;11.63;4.75;;;17.50;99.00;;;;;;5116788;28;20226;-82
2023/05/26 11:21:41;;;;;;;18.63;5.15;;;17.40;99.60;;;;;;5116855;28;20199;-80
2023/05/26 11:24:09;;;;;;;17.02;5.25;;;17.30;99.20;;;;;;5111852;28;20215;-83
2023/05/26 11:26:36;;;;;;;16.92;4.93;;;17.60;99.20;;;;;;5108933;28;20200;-83
2023/05/26 11:29:05;;;;;;;13.57;4.70;;;17.70;99.10;;;;;;5113922;28;20212;-80
2023/05/26 11:31:32;;;;;;;14.60;5.38;;;18.10;97.50;;;;;;5102395;28;20209;-80
2023/05/26 11:34:01;;;;;;;15.63;5.32;;;17.90;97.40;;;;;;5111045;28;20217;-86
2023/05/26 11:36:29;;;;;;;16.70;5.50;;;18.10;97.70;;;;;;5102144;28;20647;-85
2023/05/26 11:38:59;;;;;;;18.85;5.20;;;18.00;97.40;;;;;;5105836;28;20220;-84
2023/05/26 11:41:29;;;;;;;11.63;4.03;;;18.10;97.70;;;;;;5109684;28;20200;-84
2023/05/26 11:43:57;;;;;;;15.40;5.63;;;18.00;96.60;;;;;;5119403;27;20200;-83
2023/05/26 11:46:27;;;;;;;15.73;5.35;;;18.00;95.30;;;;;;5118352;28;20200;-84
2023/05/26 11:48:54;;;;;;;15.05;5.50;;;18.20;94.90;;;;;;5103794;28;20689;-84
2023/05/26 11:51:23;;;;;;;17.20;5.32;;;18.40;94.30;;;;;;5114286;28;20201;-83
2023/05/26 11:53:54;;;;;;;10.10;4.55;;;18.40;94.80;;;;;;5106597;28;20220;-84
2023/05/26 11:56:22;;;;;;;13.57;5.03;;;18.70;93.40;;;;;;5115783;28;20205;-83
2023/05/26 11:58:54;;;;;;;13.18;6.75;;;18.80;92.60;;;;;;5098519;28;20216;-83
2023/05/26 12:01:22;;;;;;;13.02;4.65;;;18.40;91.20;;;;;;5099567;27;20671;-84
2023/05/26 12:03:51;;;;;;;14.98;5.30;;;18.30;91.80;;;;;;5098484;28;20196;-84
2023/05/26 12:06:21;;;;;;;13.32;5.28;;;18.60;92.40;;;;;;5102463;28;20204;-84
2023/05/26 12:08:51;;;;;;;15.07;4.95;;;18.70;91.90;;;;;;5116207;28;20216;-84
2023/05/26 12:11:21;;;;;;;15.63;5.15;;;19.00;92.30;;;;;;5119732;28;20201;-84
2023/05/26 12:13:55;;;;;;;14.75;5.32;;;19.30;92.60;;;;;;5107115;28;20192;-84
2023/05/26 12:16:24;;;;;;;9.73;4.13;;;19.00;92.90;;;;;;5116193;28;20196;-84
2023/05/26 12:18:53;;;;;;;10.57;4.35;;;19.30;89.20;;;;;;5111061;28;20212;-84
2023/05/26 12:21:22;;;;;;;12.60;4.38;;;19.00;88.90;;;;;;5116176;28;20197;-84
2023/05/26 12:23:51;;;;;;;12.55;4.85;;;19.30;90.90;;;;;;5121329;27;20200;-84
2023/05/26 12:26:22;;;;;;;15.75;4.88;;;19.40;88.50;;;;;;5121552;28;20203;-84
2023/05/26 12:29:09;;;;;;;9.10;4.50;;;19.40;85.70;;;;;;5101275;28;20675;-84
2023/05/26 12:31:41;;;;;;;12.02;4.57;;;19.60;84.50;;;;;;5119854;28;20192;-84
2023/05/26 12:34:12;;;;;;;9.15;3.80;;;19.90;84.00;;;;;;5113528;28;20227;-84
2023/05/26 12:36:39;;;;;;;12.88;4.68;;;19.90;80.40;;;;;;5119278;28;20567;-84
2023/05/26 12:39:08;;;;;;;14.80;4.28;;;19.50;79.70;;;;;;5121721;28;20211;-84
2023/05/26 12:41:36;;;;;;;10.00;3.40;;;19.80;79.70;;;;;;5121039;28;20206;-84
2023/05/26 12:44:04;;;;;;;17.33;4.40;;;19.80;78.10;;;;;;5103928;28;20669;-84
2023/05/26 12:46:32;;;;;;;10.55;3.60;;;19.80;74.40;;;;;;5106929;28;20212;-84
2023/05/26 12:48:59;;;;;;;12.15;4.13;;;19.90;72.70;;;;;;5115551;28;20221;-84
2023/05/26 12:51:28;;;;;;;12.48;4.22;;;19.90;76.40;;;;;;5120474;27;20193;-84
2023/05/26 12:53:55;;;;;;;12.13;4.47;;;20.00;77.60;;;;;;5118771;28;20231;-84